createdAt,value
2018-12-29T00:00:03.339Z,6.60
2018-12-29T00:10:10.375Z,6.50
2018-12-29T00:20:15.982Z,6.50
2018-12-29T00:30:21.314Z,6.50
2018-12-29T00:40:26.711Z,6.50
2018-12-29T00:50:32.059Z,6.50
2018-12-29T01:00:37.339Z,6.40
2018-12-29T01:10:44.463Z,6.50
2018-12-29T01:20:49.821Z,6.60
2018-12-29T01:30:55.469Z,6.40
2018-12-29T01:41:00.725Z,6.50
2018-12-29T01:51:06.042Z,6.50
2018-12-29T02:01:11.386Z,6.50
2018-12-29T02:11:16.837Z,6.50
2018-12-29T02:21:22.383Z,6.50
2018-12-29T02:31:27.772Z,6.40
2018-12-29T02:41:33.154Z,6.30
2018-12-29T02:51:38.553Z,6.30
2018-12-29T03:01:44.112Z,6.20
2018-12-29T03:11:49.649Z,6.20
2018-12-29T03:21:54.994Z,6.30
2018-12-29T03:32:00.240Z,6.30
2018-12-29T03:42:05.759Z,6.40
2018-12-29T03:52:11.098Z,6.40
2018-12-29T04:02:16.461Z,6.30
2018-12-29T04:12:27.264Z,6.30
2018-12-29T04:22:32.689Z,6.30
2018-12-29T04:32:38.294Z,6.40
2018-12-29T04:42:43.651Z,6.30
2018-12-29T04:52:49.031Z,6.30
2018-12-29T05:02:54.389Z,6.20
2018-12-29T05:12:59.756Z,6.20
2018-12-29T05:23:05.106Z,6.30
2018-12-29T05:33:10.555Z,6.40
2018-12-29T05:43:16.073Z,6.50
2018-12-29T05:53:21.267Z,6.50
2018-12-29T06:03:26.665Z,6.60
2018-12-29T06:13:32.012Z,6.50
2018-12-29T06:23:37.396Z,6.40
2018-12-29T06:33:42.886Z,6.40
2018-12-29T06:43:48.198Z,6.30
2018-12-29T06:53:53.479Z,6.30
2018-12-29T07:03:58.921Z,6.20
2018-12-29T07:14:04.289Z,6.30
2018-12-29T07:24:09.596Z,6.40
2018-12-29T07:34:15.091Z,6.20
2018-12-29T07:44:22.781Z,6.00
2018-12-29T07:54:28.190Z,6.00
2018-12-29T08:04:33.679Z,6.10
2018-12-29T08:14:39.071Z,6.30
2018-12-29T08:24:44.472Z,6.40
2018-12-29T08:34:49.969Z,6.30
2018-12-29T08:44:55.547Z,6.30
2018-12-29T08:55:00.924Z,6.40
2018-12-29T09:05:06.283Z,6.50
2018-12-29T09:15:11.579Z,6.60
2018-12-29T09:25:17.035Z,6.60
2018-12-29T09:35:22.534Z,6.70
2018-12-29T09:45:28.931Z,6.80
2018-12-29T09:55:35.290Z,6.80
2018-12-29T10:05:40.748Z,6.90
2018-12-29T10:15:46.014Z,7.00
2018-12-29T10:25:51.442Z,7.10
2018-12-29T10:35:56.950Z,7.00
2018-12-29T10:46:02.376Z,7.00
2018-12-29T10:56:07.799Z,6.90
2018-12-29T11:06:13.284Z,7.00
2018-12-29T11:16:22.239Z,7.30
2018-12-29T11:26:27.744Z,7.20
2018-12-29T11:36:33.138Z,7.30
2018-12-29T11:46:38.544Z,7.50
2018-12-29T11:56:43.876Z,7.60
2018-12-29T12:06:49.309Z,7.40
2018-12-29T12:16:54.811Z,7.50
2018-12-29T12:27:00.399Z,7.70
2018-12-29T12:37:05.845Z,7.50
2018-12-29T12:47:11.177Z,7.40
2018-12-29T12:57:16.835Z,7.40
2018-12-29T13:07:22.653Z,7.20
2018-12-29T13:17:28.195Z,7.00
2018-12-29T13:27:33.635Z,7.00
2018-12-29T13:37:39.104Z,7.00
2018-12-29T13:47:44.744Z,7.00
2018-12-29T13:57:50.187Z,7.20
2018-12-29T14:07:55.418Z,7.30
2018-12-29T14:18:00.855Z,7.20
2018-12-29T14:28:06.261Z,7.30
2018-12-29T14:38:11.740Z,7.30
2018-12-29T14:48:17.125Z,7.40
2018-12-29T14:58:22.520Z,7.50
2018-12-29T15:08:28.013Z,7.60
2018-12-29T15:18:33.392Z,7.50
2018-12-29T15:28:39.317Z,7.50
2018-12-29T15:38:44.799Z,7.70
2018-12-29T15:48:51.136Z,7.80
2018-12-29T15:59:00.103Z,8.00
2018-12-29T16:09:07.508Z,8.20
2018-12-29T16:19:13.397Z,8.10
2018-12-29T16:29:18.873Z,7.70
2018-12-29T16:39:24.269Z,7.40
2018-12-29T16:49:29.731Z,7.40
2018-12-29T16:59:35.330Z,7.40
2018-12-29T17:09:41.109Z,7.30
2018-12-29T17:19:46.845Z,7.10
2018-12-29T17:29:52.138Z,7.10
2018-12-29T17:39:57.885Z,7.00
2018-12-29T17:50:03.476Z,7.10
2018-12-29T18:00:09.123Z,7.00
2018-12-29T18:10:14.511Z,7.10
2018-12-29T18:20:20.031Z,7.00
2018-12-29T18:30:25.569Z,7.00
2018-12-29T18:40:30.835Z,7.00
2018-12-29T18:50:36.215Z,6.80
2018-12-29T19:00:41.639Z,6.80
2018-12-29T19:10:47.462Z,6.90
2018-12-29T19:20:53.248Z,7.00
2018-12-29T19:30:58.861Z,7.00
2018-12-29T19:41:05.748Z,7.10
2018-12-29T19:51:11.617Z,7.00
2018-12-29T20:01:17.509Z,7.10
2018-12-29T20:11:22.991Z,7.20
2018-12-29T20:21:28.438Z,7.30
2018-12-29T20:31:33.995Z,7.30
2018-12-29T20:41:39.384Z,7.50
2018-12-29T20:51:44.773Z,7.70
2018-12-29T21:01:50.439Z,8.30
2018-12-29T21:11:55.839Z,8.20
2018-12-29T21:22:01.315Z,8.00
2018-12-29T21:32:07.039Z,7.90
2018-12-29T21:42:12.519Z,8.00
2018-12-29T21:52:17.858Z,8.00
2018-12-29T22:02:23.276Z,7.90
2018-12-29T22:12:28.715Z,7.80
2018-12-29T22:22:34.121Z,7.70
2018-12-29T22:32:39.532Z,7.60
2018-12-29T22:42:44.961Z,7.60
2018-12-29T22:52:50.311Z,7.40
2018-12-29T23:02:56.135Z,7.50
2018-12-29T23:13:02.059Z,7.50
2018-12-29T23:23:07.498Z,7.70
2018-12-29T23:33:12.927Z,7.90
2018-12-29T23:43:18.264Z,7.90
2018-12-29T23:53:23.734Z,8.00
